Time;durP1;ratioP1;P1;durP2;ratioP2;P2;SDS_P1;SDS_P2;PMS_P1;PMS_P2;Temp;Humidity;BMP_temperature;BMP_pressure;BME280_temperature;BME280_humidity;BME280_pressure;Samples;Min_cycle;Max_cycle;Signal;HPM_P1;HPM_P2
2021/04/16 00:00:20;;;;;;;6.77;6.07;;;3.50;99.90;;;;;;5014830;28;20423;-55
2021/04/16 00:02:46;;;;;;;8.50;6.43;;;3.60;99.90;;;;;;5014152;28;20481;-56
2021/04/16 00:05:12;;;;;;;6.90;6.20;;;3.60;99.90;;;;;;5014459;28;20422;-57
2021/04/16 00:07:38;;;;;;;10.13;5.93;;;3.70;99.90;;;;;;5014805;28;20223;-56
2021/04/16 00:10:11;;;;;;;6.97;6.33;;;3.80;99.90;;;;;;5028250;28;20785;-59
2021/04/16 00:12:37;;;;;;;8.33;6.43;;;3.80;99.90;;;;;;5034003;28;20200;-57
2021/04/16 00:15:07;;;;;;;8.27;5.83;;;3.70;99.90;;;;;;5034310;28;20403;-55
2021/04/16 00:17:33;;;;;;;5.30;4.90;;;3.80;99.90;;;;;;5034718;28;20201;-57
2021/04/16 00:19:58;;;;;;;9.93;5.63;;;3.80;99.90;;;;;;5022895;28;20849;-57
2021/04/16 00:22:24;;;;;;;5.07;4.67;;;3.80;99.90;;;;;;5033540;28;20262;-57
2021/04/16 00:24:50;;;;;;;5.70;5.20;;;3.80;99.90;;;;;;5034737;28;20166;-59
2021/04/16 00:27:16;;;;;;;6.70;5.27;;;3.80;99.90;;;;;;5034320;28;20257;-55
2021/04/16 00:29:41;;;;;;;6.30;5.70;;;3.80;99.90;;;;;;5034444;28;20953;-56
2021/04/16 00:32:07;;;;;;;6.07;5.43;;;3.70;99.90;;;;;;5034669;28;20164;-56
2021/04/16 00:34:32;;;;;;;6.87;6.13;;;3.50;99.90;;;;;;5033895;28;20670;-56
2021/04/16 00:36:58;;;;;;;8.53;6.53;;;3.50;99.90;;;;;;5016536;28;20413;-55
2021/04/16 00:39:24;;;;;;;6.77;5.80;;;3.50;99.90;;;;;;5033364;28;20344;-56
2021/04/16 00:41:50;;;;;;;7.33;5.83;;;3.60;99.90;;;;;;5033444;28;20205;-56
2021/04/16 00:44:16;;;;;;;7.10;5.70;;;3.70;99.90;;;;;;5033559;28;20561;-56
2021/04/16 00:46:58;;;;;;;7.33;5.93;;;3.70;99.90;;;;;;5033467;28;20488;-57
2021/04/16 00:49:31;;;;;;;7.40;6.57;;;3.80;99.90;;;;;;5032992;28;20935;-60
2021/04/16 00:52:05;;;;;;;6.43;5.83;;;3.70;99.90;;;;;;5033465;28;20388;-58
2021/04/16 00:54:41;;;;;;;6.83;5.90;;;3.60;99.90;;;;;;5033582;28;20425;-56
2021/04/16 00:57:10;;;;;;;6.53;5.80;;;3.50;99.90;;;;;;5033403;28;20756;-56
2021/04/16 00:59:39;;;;;;;6.27;5.73;;;3.60;99.90;;;;;;5022744;28;20436;-57
2021/04/16 01:02:07;;;;;;;6.10;5.60;;;3.70;99.90;;;;;;5032797;28;20464;-56
2021/04/16 01:04:33;;;;;;;7.07;4.97;;;3.60;99.90;;;;;;5032473;28;20409;-55
2021/04/16 01:07:02;;;;;;;7.10;6.40;;;3.60;99.90;;;;;;5018677;28;20827;-57
2021/04/16 01:09:28;;;;;;;8.47;6.10;;;3.50;99.90;;;;;;5022005;28;20406;-57
2021/04/16 01:11:53;;;;;;;6.77;5.77;;;3.50;99.90;;;;;;5032229;28;20405;-56
2021/04/16 01:14:19;;;;;;;7.97;6.90;;;3.40;99.90;;;;;;5033279;28;20427;-57
2021/04/16 01:16:46;;;;;;;6.80;5.87;;;3.40;99.90;;;;;;5033429;28;20178;-58
2021/04/16 01:19:26;;;;;;;7.70;6.97;;;3.30;99.90;;;;;;5032370;28;20453;-58
2021/04/16 01:21:58;;;;;;;7.20;6.30;;;3.30;99.90;;;;;;5033204;28;20383;-57
2021/04/16 01:24:29;;;;;;;7.10;6.00;;;3.20;99.90;;;;;;5033737;28;20965;-58
2021/04/16 01:26:55;;;;;;;7.40;5.30;;;3.20;99.90;;;;;;5031902;28;20432;-55
2021/04/16 01:29:22;;;;;;;7.00;6.40;;;3.20;99.90;;;;;;5032937;28;20401;-57
2021/04/16 01:31:48;;;;;;;7.60;6.37;;;3.20;99.90;;;;;;5032988;28;20543;-56
2021/04/16 01:34:20;;;;;;;9.20;6.27;;;3.30;99.90;;;;;;5032882;28;20461;-54
2021/04/16 01:36:46;;;;;;;5.70;5.20;;;3.30;99.90;;;;;;5033181;28;20404;-56
2021/04/16 01:39:12;;;;;;;6.10;5.50;;;3.30;99.90;;;;;;5026845;28;20924;-55
2021/04/16 01:41:38;;;;;;;6.80;5.23;;;3.30;99.90;;;;;;5031529;28;21230;-56
2021/04/16 01:44:13;;;;;;;6.17;5.57;;;3.20;99.90;;;;;;5032638;28;20433;-57
2021/04/16 01:47:00;;;;;;;7.73;5.80;;;3.10;99.90;;;;;;5015023;28;20398;-56
2021/04/16 01:49:30;;;;;;;5.83;5.07;;;3.20;99.90;;;;;;5031578;28;20414;-57
2021/04/16 01:51:57;;;;;;;5.50;5.00;;;3.20;99.90;;;;;;5032956;28;20820;-57
2021/04/16 01:54:34;;;;;;;5.97;5.37;;;3.20;99.90;;;;;;5032882;28;20416;-57
2021/04/16 01:57:10;;;;;;;5.63;5.10;;;3.10;99.90;;;;;;5032821;28;20462;-61
2021/04/16 01:59:38;;;;;;;7.67;5.40;;;3.20;99.90;;;;;;5014808;28;20404;-61
2021/04/16 02:02:17;;;;;;;5.30;4.90;;;3.10;99.90;;;;;;5025910;28;20470;-62
2021/04/16 02:04:43;;;;;;;7.27;5.70;;;3.10;99.90;;;;;;5032227;28;20419;-61
2021/04/16 02:07:09;;;;;;;7.13;5.60;;;3.10;99.90;;;;;;5032945;28;20404;-61
2021/04/16 02:09:37;;;;;;;6.17;5.43;;;3.10;99.90;;;;;;5032441;28;20418;-56
2021/04/16 02:12:05;;;;;;;5.87;5.33;;;3.00;99.90;;;;;;5032611;28;20246;-56
2021/04/16 02:14:32;;;;;;;5.30;4.80;;;3.00;99.90;;;;;;5032773;28;20415;-57
2021/04/16 02:17:08;;;;;;;6.97;5.43;;;3.10;99.90;;;;;;5033129;28;20463;-56
2021/04/16 02:19:35;;;;;;;6.23;4.83;;;3.10;99.90;;;;;;5017111;28;20903;-57
2021/04/16 02:22:01;;;;;;;5.33;4.90;;;3.00;99.90;;;;;;5032208;28;20459;-56
2021/04/16 02:24:26;;;;;;;5.93;5.37;;;2.90;99.90;;;;;;5036490;28;20427;-53
2021/04/16 02:26:53;;;;;;;5.87;5.27;;;2.80;99.90;;;;;;5035948;28;20162;-57
2021/04/16 02:29:20;;;;;;;6.53;5.80;;;2.80;99.90;;;;;;5036256;28;20392;-56
2021/04/16 02:31:46;;;;;;;6.80;6.20;;;2.80;99.90;;;;;;5036184;28;20430;-56
2021/04/16 02:34:18;;;;;;;6.10;5.60;;;2.80;99.90;;;;;;5035811;28;20518;-58
2021/04/16 02:36:44;;;;;;;5.93;5.43;;;2.80;99.90;;;;;;5036689;28;20938;-57
2021/04/16 02:39:11;;;;;;;8.67;5.43;;;2.80;99.90;;;;;;5035407;28;20771;-57
2021/04/16 02:41:36;;;;;;;6.40;5.53;;;2.80;99.90;;;;;;5036086;28;20448;-57
2021/04/16 02:44:04;;;;;;;5.67;5.13;;;2.90;99.90;;;;;;5035560;28;20546;-57
2021/04/16 02:46:30;;;;;;;6.00;5.50;;;3.00;99.90;;;;;;5034384;28;20650;-56
2021/04/16 02:48:56;;;;;;;8.10;5.37;;;2.90;99.90;;;;;;5017320;28;20474;-62
2021/04/16 02:51:21;;;;;;;5.87;5.30;;;2.80;99.90;;;;;;5035679;28;20430;-57
2021/04/16 02:53:47;;;;;;;7.80;6.03;;;2.80;99.90;;;;;;5035848;28;20579;-57
2021/04/16 02:56:13;;;;;;;5.63;5.13;;;2.70;99.90;;;;;;5035645;28;20173;-54
2021/04/16 02:58:38;;;;;;;6.03;5.53;;;2.70;99.90;;;;;;5035301;28;20181;-54
2021/04/16 03:01:04;;;;;;;6.10;5.10;;;2.80;99.90;;;;;;5022522;28;20542;-56
2021/04/16 03:03:30;;;;;;;11.07;6.53;;;2.80;99.90;;;;;;5035187;28;20231;-55
2021/04/16 03:05:56;;;;;;;6.63;6.03;;;2.90;99.90;;;;;;5027026;28;20425;-55
2021/04/16 03:08:21;;;;;;;7.87;5.37;;;2.90;99.90;;;;;;5015446;28;20488;-54
2021/04/16 03:10:49;;;;;;;5.70;5.20;;;2.80;99.90;;;;;;5035100;28;20180;-56
2021/04/16 03:13:15;;;;;;;6.10;5.50;;;2.90;99.90;;;;;;5034828;28;20196;-57
2021/04/16 03:15:40;;;;;;;5.20;4.70;;;3.00;99.90;;;;;;5035587;28;20887;-53
2021/04/16 03:18:06;;;;;;;5.67;5.17;;;3.00;99.90;;;;;;5035120;28;20171;-55
2021/04/16 03:20:32;;;;;;;6.53;5.83;;;3.00;99.90;;;;;;5034429;28;20191;-56
2021/04/16 03:22:58;;;;;;;7.53;5.30;;;2.80;99.90;;;;;;5035160;28;20205;-56
2021/04/16 03:25:23;;;;;;;5.70;5.00;;;2.70;99.90;;;;;;5035031;28;20431;-57
2021/04/16 03:27:49;;;;;;;6.60;5.97;;;2.60;99.90;;;;;;5035005;28;20446;-56
2021/04/16 03:30:19;;;;;;;8.47;5.70;;;2.70;99.90;;;;;;5034916;28;20168;-57
2021/04/16 03:32:44;;;;;;;5.60;5.00;;;2.70;99.90;;;;;;5035199;28;20185;-56
2021/04/16 03:35:11;;;;;;;6.13;5.40;;;2.70;99.90;;;;;;5034301;28;20891;-58
2021/04/16 03:37:36;;;;;;;5.73;5.03;;;2.60;99.90;;;;;;5034992;28;20172;-57
2021/04/16 03:40:05;;;;;;;7.10;6.50;;;2.70;99.90;;;;;;5024308;28;20950;-57
2021/04/16 03:42:31;;;;;;;6.73;6.03;;;2.70;99.90;;;;;;5035435;28;20208;-57
2021/04/16 03:44:56;;;;;;;8.77;7.07;;;2.80;99.90;;;;;;5034772;28;20465;-56
2021/04/16 03:47:22;;;;;;;6.43;5.83;;;2.60;99.90;;;;;;5034696;28;20578;-56
2021/04/16 03:49:47;;;;;;;5.80;5.30;;;2.60;99.90;;;;;;5034099;28;20178;-56
2021/04/16 03:52:13;;;;;;;6.80;6.13;;;2.60;99.90;;;;;;5034430;28;20177;-57
2021/04/16 03:54:39;;;;;;;5.90;5.40;;;2.60;99.90;;;;;;5034699;28;20175;-54
2021/04/16 03:57:08;;;;;;;6.57;5.97;;;2.60;99.90;;;;;;5034714;28;20169;-56
2021/04/16 03:59:34;;;;;;;7.10;6.50;;;2.60;99.90;;;;;;5016369;28;20783;-57
2021/04/16 04:01:59;;;;;;;6.40;5.80;;;2.50;99.90;;;;;;5014506;28;20426;-55
2021/04/16 04:04:25;;;;;;;8.70;6.33;;;2.50;99.90;;;;;;5014958;28;20192;-57
2021/04/16 04:06:51;;;;;;;6.40;5.80;;;2.40;99.90;;;;;;5034574;28;20176;-53
2021/04/16 04:09:18;;;;;;;6.83;6.13;;;2.40;99.90;;;;;;5034421;28;20645;-58
2021/04/16 04:11:44;;;;;;;6.40;5.67;;;2.40;99.90;;;;;;5033997;28;20478;-57
2021/04/16 04:14:10;;;;;;;5.70;5.17;;;2.40;99.90;;;;;;5033962;28;20514;-56
2021/04/16 04:16:59;;;;;;;5.90;5.40;;;2.40;99.90;;;;;;5034077;28;20557;-52
2021/04/16 04:19:26;;;;;;;6.27;5.40;;;2.30;99.90;;;;;;5023838;28;20964;-58
2021/04/16 04:21:53;;;;;;;7.10;5.70;;;2.40;99.90;;;;;;5009748;28;20517;-55
2021/04/16 04:24:20;;;;;;;6.43;5.93;;;2.40;99.90;;;;;;5033647;28;20453;-56
2021/04/16 04:26:46;;;;;;;7.40;6.70;;;2.40;99.90;;;;;;5021244;28;20412;-56
2021/04/16 04:29:12;;;;;;;7.57;6.57;;;2.40;99.90;;;;;;5014300;28;20406;-54
2021/04/16 04:31:46;;;;;;;9.73;6.37;;;2.40;99.90;;;;;;5013986;28;20412;-54
2021/04/16 04:34:18;;;;;;;7.10;6.40;;;2.40;99.90;;;;;;5013748;28;20424;-55
2021/04/16 04:36:44;;;;;;;12.63;7.67;;;2.30;99.90;;;;;;4996200;28;20927;-53
2021/04/16 04:39:12;;;;;;;8.20;7.03;;;2.40;99.90;;;;;;5027729;28;20418;-52
2021/04/16 04:41:38;;;;;;;8.43;7.20;;;2.40;99.90;;;;;;5033587;28;20508;-56
2021/04/16 04:44:04;;;;;;;7.63;6.93;;;2.50;99.90;;;;;;5033166;28;20552;-52
2021/04/16 04:46:29;;;;;;;7.57;6.87;;;2.50;99.90;;;;;;5032468;28;20962;-52
2021/04/16 04:48:55;;;;;;;6.80;6.20;;;2.50;99.90;;;;;;5033417;28;20571;-67
2021/04/16 04:51:20;;;;;;;6.90;5.67;;;2.60;99.90;;;;;;5033025;28;20171;-61
2021/04/16 04:53:46;;;;;;;7.50;6.30;;;2.50;99.90;;;;;;5033748;28;20246;-60
2021/04/16 04:56:11;;;;;;;6.07;5.57;;;2.60;99.90;;;;;;5033741;28;20214;-61
2021/04/16 04:58:37;;;;;;;5.80;5.30;;;2.60;99.90;;;;;;5033562;28;20169;-56
2021/04/16 05:01:03;;;;;;;5.77;5.17;;;2.60;99.90;;;;;;5023318;28;20590;-55
2021/04/16 05:03:28;;;;;;;7.53;5.70;;;2.70;99.90;;;;;;5033065;28;20216;-61
2021/04/16 05:05:54;;;;;;;5.63;5.00;;;2.70;99.90;;;;;;5032627;28;20171;-61
2021/04/16 05:08:19;;;;;;;6.87;5.40;;;2.60;99.90;;;;;;5033443;28;20164;-57
2021/04/16 05:10:45;;;;;;;7.10;6.37;;;2.50;99.90;;;;;;5029360;28;20685;-57
2021/04/16 05:13:11;;;;;;;8.57;7.77;;;2.50;99.90;;;;;;5021948;28;20275;-56
2021/04/16 05:15:36;;;;;;;9.80;7.30;;;2.50;99.90;;;;;;5013618;28;20179;-55
2021/04/16 05:18:02;;;;;;;7.80;7.00;;;2.60;99.90;;;;;;5019007;28;20172;-56
2021/04/16 05:20:27;;;;;;;7.00;6.30;;;2.70;99.90;;;;;;5032652;28;20183;-58
2021/04/16 05:22:53;;;;;;;8.17;6.30;;;2.80;99.90;;;;;;5033201;28;20199;-58
2021/04/16 05:25:19;;;;;;;8.47;7.63;;;2.90;99.90;;;;;;5033291;28;20189;-58
2021/04/16 05:27:44;;;;;;;6.87;6.30;;;2.90;99.90;;;;;;5032918;28;20253;-58
2021/04/16 05:30:11;;;;;;;8.57;7.87;;;3.00;99.90;;;;;;5033110;28;20310;-62
2021/04/16 05:32:37;;;;;;;8.17;7.30;;;3.10;99.90;;;;;;5033261;28;20196;-62
2021/04/16 05:35:03;;;;;;;6.87;6.10;;;3.20;99.90;;;;;;5032680;28;20400;-60
2021/04/16 05:37:29;;;;;;;8.03;7.30;;;3.30;99.90;;;;;;5032996;28;20493;-56
2021/04/16 05:39:55;;;;;;;10.47;6.80;;;3.30;99.90;;;;;;5021983;28;20452;-62
2021/04/16 05:42:21;;;;;;;10.30;6.30;;;3.30;99.90;;;;;;5032395;28;20636;-61
2021/04/16 05:44:46;;;;;;;8.67;6.10;;;3.40;99.90;;;;;;5032785;28;20170;-61
2021/04/16 05:47:12;;;;;;;6.20;5.70;;;3.40;99.90;;;;;;5032690;28;20418;-61
2021/04/16 05:49:38;;;;;;;7.53;6.87;;;3.60;99.90;;;;;;5032099;28;20176;-52
2021/04/16 05:52:04;;;;;;;30.00;21.13;;;3.70;99.90;;;;;;5035513;28;20462;-56
2021/04/16 05:54:30;;;;;;;8.63;6.43;;;3.70;99.90;;;;;;5033901;28;20199;-56
2021/04/16 05:56:55;;;;;;;7.63;6.70;;;3.80;99.90;;;;;;5033396;28;20415;-61
2021/04/16 05:59:21;;;;;;;9.87;7.33;;;4.00;99.90;;;;;;5019134;28;20241;-62
2021/04/16 06:01:46;;;;;;;10.50;7.80;;;4.20;99.90;;;;;;5025627;28;20179;-61
2021/04/16 06:04:18;;;;;;;7.30;6.60;;;4.40;99.90;;;;;;5017024;28;20279;-61
2021/04/16 06:06:43;;;;;;;6.43;5.83;;;4.60;99.90;;;;;;5016778;28;20529;-60
2021/04/16 06:09:09;;;;;;;7.67;6.90;;;4.90;99.90;;;;;;5023142;28;20414;-62
2021/04/16 06:11:34;;;;;;;7.10;6.17;;;4.90;99.90;;;;;;5036751;28;20182;-62
2021/04/16 06:14:00;;;;;;;6.70;6.10;;;5.00;99.90;;;;;;5036559;28;20679;-61
2021/04/16 06:16:26;;;;;;;8.37;6.73;;;5.10;99.90;;;;;;5037238;28;20258;-61
2021/04/16 06:18:51;;;;;;;7.20;6.50;;;4.80;99.90;;;;;;5037027;28;20529;-56
2021/04/16 06:21:17;;;;;;;7.40;6.50;;;4.70;99.90;;;;;;5025914;28;20183;-62
2021/04/16 06:23:42;;;;;;;7.80;7.00;;;4.70;99.90;;;;;;5035613;28;20203;-60
2021/04/16 06:26:08;;;;;;;8.60;7.50;;;4.70;99.90;;;;;;5028691;28;20256;-61
2021/04/16 06:28:34;;;;;;;7.70;6.90;;;4.60;99.90;;;;;;5016761;28;20195;-55
2021/04/16 06:31:00;;;;;;;8.37;7.47;;;4.80;99.90;;;;;;5019793;28;20236;-56
2021/04/16 06:33:31;;;;;;;8.00;6.40;;;5.00;99.90;;;;;;5034579;28;20270;-57
2021/04/16 06:36:04;;;;;;;7.10;6.40;;;5.10;99.90;;;;;;5033614;28;20402;-62
2021/04/16 06:38:32;;;;;;;8.30;7.27;;;5.10;99.90;;;;;;5028077;28;20414;-56
2021/04/16 06:40:59;;;;;;;7.60;6.90;;;5.00;99.90;;;;;;5035900;28;20500;-56
2021/04/16 06:43:39;;;;;;;7.73;6.93;;;4.90;99.90;;;;;;5035949;28;20484;-61
2021/04/16 06:46:09;;;;;;;7.43;6.73;;;5.00;99.90;;;;;;5035818;28;20394;-63
2021/04/16 06:48:35;;;;;;;7.33;6.43;;;4.60;99.90;;;;;;5035901;28;20417;-56
2021/04/16 06:51:01;;;;;;;7.70;7.00;;;4.60;99.90;;;;;;5035473;28;20497;-57
2021/04/16 06:53:39;;;;;;;7.20;6.00;;;4.80;99.90;;;;;;5035789;28;20191;-56
2021/04/16 06:56:11;;;;;;;7.27;6.63;;;4.80;99.90;;;;;;5036200;28;20413;-56
2021/04/16 06:58:41;;;;;;;7.73;7.00;;;4.70;99.90;;;;;;5035720;28;20394;-62
2021/04/16 07:01:16;;;;;;;8.90;5.90;;;4.80;99.90;;;;;;5025829;28;20850;-61
2021/04/16 07:03:46;;;;;;;6.90;6.30;;;5.00;99.90;;;;;;5015689;28;20894;-62
2021/04/16 07:06:25;;;;;;;7.50;6.70;;;4.90;99.90;;;;;;5024464;28;20381;-61
2021/04/16 07:09:08;;;;;;;7.50;6.80;;;4.80;99.90;;;;;;5034903;28;20418;-55
2021/04/16 07:11:48;;;;;;;8.40;7.60;;;4.80;99.90;;;;;;5035274;28;20494;-60
2021/04/16 07:14:40;;;;;;;7.30;6.70;;;5.00;99.90;;;;;;5035115;28;20498;-61
2021/04/16 07:17:08;;;;;;;7.57;6.87;;;5.00;99.90;;;;;;5034798;28;20919;-61
2021/04/16 07:19:35;;;;;;;6.93;6.37;;;5.20;99.90;;;;;;5035337;28;20418;-56
2021/04/16 07:22:03;;;;;;;7.70;6.93;;;5.40;99.90;;;;;;5034909;28;20761;-54
2021/04/16 07:24:31;;;;;;;8.90;7.50;;;5.30;99.90;;;;;;5034453;28;20434;-57
2021/04/16 07:26:59;;;;;;;8.00;7.30;;;5.30;99.90;;;;;;5036483;28;20502;-58
2021/04/16 07:29:45;;;;;;;9.23;8.33;;;5.20;99.90;;;;;;5033962;28;20453;-55
2021/04/16 07:32:32;;;;;;;7.03;6.37;;;5.40;99.90;;;;;;5036530;28;20387;-61
2021/04/16 07:35:31;;;;;;;7.57;6.83;;;5.30;99.90;;;;;;5035698;28;20465;-59
2021/04/16 07:38:14;;;;;;;7.60;7.00;;;5.40;99.90;;;;;;5035747;28;20406;-55
2021/04/16 07:40:45;;;;;;;7.67;6.90;;;5.40;99.90;;;;;;5035985;28;20413;-55
2021/04/16 07:43:43;;;;;;;8.10;7.30;;;5.60;99.90;;;;;;5034637;28;20458;-57
2021/04/16 07:46:27;;;;;;;7.97;7.17;;;5.90;99.90;;;;;;5035952;28;20403;-56
2021/04/16 07:49:09;;;;;;;8.13;6.80;;;6.10;99.90;;;;;;5036005;28;20387;-56
2021/04/16 07:51:34;;;;;;;8.00;7.20;;;6.00;99.90;;;;;;5037032;28;20460;-56
2021/04/16 07:54:21;;;;;;;7.47;6.87;;;5.80;99.90;;;;;;5035636;28;20429;-57
2021/04/16 07:56:49;;;;;;;9.00;8.10;;;5.80;99.90;;;;;;5036222;28;20652;-53
2021/04/16 07:59:16;;;;;;;8.03;7.23;;;5.70;99.90;;;;;;5047393;28;20432;-56
2021/04/16 08:01:47;;;;;;;8.30;7.50;;;5.80;99.90;;;;;;5056382;28;20421;-56
2021/04/16 08:04:34;;;;;;;8.50;7.80;;;6.10;99.90;;;;;;5047321;28;20481;-58
2021/04/16 08:07:32;;;;;;;6.63;6.03;;;6.10;99.90;;;;;;5044302;28;20390;-59
2021/04/16 08:09:59;;;;;;;8.40;7.60;;;6.20;99.90;;;;;;5036672;28;20441;-55
2021/04/16 08:12:27;;;;;;;8.80;8.00;;;5.90;99.90;;;;;;5039801;28;20430;-55
2021/04/16 08:15:21;;;;;;;12.80;8.33;;;6.40;99.90;;;;;;5035870;28;20899;-54
2021/04/16 08:17:48;;;;;;;7.70;7.00;;;6.40;99.90;;;;;;5034610;28;20414;-57
2021/04/16 08:20:19;;;;;;;7.67;7.07;;;6.30;99.90;;;;;;5034172;28;20406;-58
2021/04/16 08:22:46;;;;;;;7.47;6.87;;;6.60;99.90;;;;;;5034669;28;20480;-62
2021/04/16 08:25:18;;;;;;;8.23;7.53;;;6.80;99.90;;;;;;5035460;28;20402;-62
2021/04/16 08:27:46;;;;;;;8.70;7.40;;;6.40;99.90;;;;;;5034556;28;20383;-56
2021/04/16 08:30:21;;;;;;;8.47;7.70;;;6.40;99.90;;;;;;5034246;28;20409;-62
2021/04/16 08:32:51;;;;;;;8.57;7.80;;;6.70;99.90;;;;;;5034670;28;20940;-62
2021/04/16 08:35:19;;;;;;;9.10;8.30;;;6.60;99.90;;;;;;5034276;28;20440;-61
2021/04/16 08:37:51;;;;;;;8.70;8.00;;;6.50;99.90;;;;;;5034540;28;20417;-56
2021/04/16 08:40:46;;;;;;;8.30;7.60;;;6.70;99.90;;;;;;5034209;28;20421;-58
2021/04/16 08:43:24;;;;;;;8.10;7.40;;;6.50;99.90;;;;;;5031614;28;20465;-55
2021/04/16 08:45:49;;;;;;;7.90;7.20;;;6.60;99.90;;;;;;5033670;28;20402;-56
2021/04/16 08:48:22;;;;;;;7.23;6.63;;;6.80;99.90;;;;;;5034111;28;20402;-58
2021/04/16 08:50:52;;;;;;;7.27;6.67;;;7.10;99.90;;;;;;5034124;28;20151;-56
2021/04/16 08:53:18;;;;;;;7.17;6.47;;;7.00;99.90;;;;;;5034362;28;20458;-57
2021/04/16 08:55:49;;;;;;;7.80;7.10;;;6.80;99.90;;;;;;5033976;28;20515;-62
2021/04/16 08:58:29;;;;;;;7.93;7.23;;;6.60;99.90;;;;;;5033713;28;20520;-63
2021/04/16 09:01:06;;;;;;;7.50;7.00;;;6.50;99.90;;;;;;5034435;28;20874;-63
2021/04/16 09:03:54;;;;;;;8.47;7.77;;;6.50;99.90;;;;;;5033747;28;20591;-63
2021/04/16 09:06:31;;;;;;;7.60;6.87;;;6.80;99.90;;;;;;5033753;28;20806;-64
2021/04/16 09:08:59;;;;;;;7.93;7.23;;;7.00;99.90;;;;;;5033462;28;20859;-59
2021/04/16 09:11:45;;;;;;;6.70;6.10;;;6.70;99.90;;;;;;5034082;28;20937;-63
2021/04/16 09:14:26;;;;;;;6.47;5.73;;;7.00;99.90;;;;;;5033838;28;20425;-62
2021/04/16 09:16:59;;;;;;;7.10;6.57;;;6.80;99.90;;;;;;5016186;28;20410;-61
2021/04/16 09:19:24;;;;;;;6.77;6.17;;;7.00;99.90;;;;;;5034770;28;20492;-62
2021/04/16 09:22:02;;;;;;;7.20;6.60;;;7.10;99.90;;;;;;5033460;28;20510;-63
2021/04/16 09:24:58;;;;;;;7.73;6.67;;;7.20;99.90;;;;;;5033367;28;20199;-63
2021/04/16 09:27:39;;;;;;;6.83;6.20;;;7.20;99.90;;;;;;5024795;28;20481;-63
2021/04/16 09:30:08;;;;;;;6.20;5.60;;;7.60;99.90;;;;;;5033226;28;20390;-63
2021/04/16 09:32:34;;;;;;;7.17;6.57;;;8.00;99.90;;;;;;5034672;28;20449;-63
2021/04/16 09:35:25;;;;;;;6.80;5.80;;;8.20;99.90;;;;;;5037218;28;20405;-62
2021/04/16 09:38:12;;;;;;;7.10;6.50;;;8.20;99.90;;;;;;5032916;28;20290;-65
2021/04/16 09:40:37;;;;;;;7.67;7.07;;;8.30;99.90;;;;;;5037584;28;20414;-65
2021/04/16 09:43:09;;;;;;;7.40;6.77;;;8.60;99.90;;;;;;5037548;28;20515;-62
2021/04/16 09:45:35;;;;;;;7.70;6.10;;;8.40;99.90;;;;;;5037858;28;20172;-62
2021/04/16 09:48:02;;;;;;;5.70;5.23;;;8.50;99.80;;;;;;5037785;28;20531;-62
2021/04/16 09:50:35;;;;;;;7.17;6.53;;;8.30;99.90;;;;;;5037423;28;20159;-63
2021/04/16 09:53:26;;;;;;;7.07;6.37;;;8.40;99.80;;;;;;5038456;28;20434;-63
2021/04/16 09:55:58;;;;;;;7.30;6.70;;;8.20;99.90;;;;;;5039154;28;20378;-63
2021/04/16 09:58:31;;;;;;;6.37;5.77;;;7.80;99.90;;;;;;5038940;28;20409;-63
2021/04/16 10:00:56;;;;;;;6.13;5.57;;;8.10;99.90;;;;;;5038489;28;20410;-63
2021/04/16 10:03:43;;;;;;;6.90;6.30;;;8.30;99.20;;;;;;5042577;28;21045;-63
2021/04/16 10:06:31;;;;;;;5.97;5.47;;;8.90;99.20;;;;;;5056981;28;20166;-63
2021/04/16 10:09:02;;;;;;;6.03;5.63;;;8.70;98.30;;;;;;5052178;28;20406;-63
2021/04/16 10:11:28;;;;;;;6.87;5.77;;;8.70;98.20;;;;;;5037264;28;20406;-62
2021/04/16 10:14:12;;;;;;;6.53;6.00;;;8.60;99.10;;;;;;5036725;28;20929;-63
2021/04/16 10:16:39;;;;;;;5.73;5.30;;;8.90;98.40;;;;;;5036802;28;20154;-62
2021/04/16 10:19:14;;;;;;;6.40;5.90;;;9.00;97.80;;;;;;5036875;28;20412;-63
2021/04/16 10:21:41;;;;;;;6.40;5.83;;;9.00;97.20;;;;;;5036360;28;20398;-63
2021/04/16 11:45:32;;;;;;;7.77;7.07;;;7.80;99.90;;;;;;5035829;28;20472;-62
2021/04/16 12:38:45;;;;;;;6.93;6.33;;;8.00;98.70;;;;;;5034540;28;20386;-63
2021/04/16 12:41:23;;;;;;;6.23;5.63;;;8.30;98.10;;;;;;5034646;28;20418;-62
2021/04/16 12:43:50;;;;;;;6.33;5.53;;;8.30;98.30;;;;;;5034397;28;20488;-62
2021/04/16 12:46:19;;;;;;;6.63;5.70;;;8.30;97.80;;;;;;5033747;28;20452;-63
2021/04/16 12:48:44;;;;;;;6.70;6.03;;;8.30;97.90;;;;;;5034088;28;20410;-56
2021/04/16 12:51:11;;;;;;;6.57;6.07;;;8.30;98.10;;;;;;5033997;28;20429;-59
2021/04/16 12:53:37;;;;;;;5.80;5.30;;;8.40;98.20;;;;;;5034151;28;20226;-56
2021/04/16 12:56:06;;;;;;;5.37;4.97;;;8.30;97.90;;;;;;5034457;28;20410;-59
2021/04/16 12:58:37;;;;;;;7.70;5.73;;;8.50;97.70;;;;;;5033913;28;20402;-62
2021/04/16 13:01:06;;;;;;;6.50;5.90;;;8.90;97.90;;;;;;5033733;28;20489;-64
2021/04/16 13:03:39;;;;;;;6.63;6.03;;;9.00;97.10;;;;;;5033531;28;20472;-64
2021/04/16 13:06:14;;;;;;;6.30;5.70;;;8.90;97.20;;;;;;5033760;28;20410;-62
2021/04/16 13:08:40;;;;;;;6.80;6.20;;;9.40;96.90;;;;;;5033328;28;20486;-59
2021/04/16 13:11:05;;;;;;;6.20;5.70;;;10.00;95.90;;;;;;5032779;28;20452;-59
2021/04/16 13:13:31;;;;;;;5.97;5.47;;;10.40;95.10;;;;;;5033431;28;20218;-59
2021/04/16 13:15:57;;;;;;;6.60;6.00;;;10.60;94.50;;;;;;5033099;28;20177;-56
2021/04/16 13:18:34;;;;;;;5.73;5.30;;;10.40;94.40;;;;;;5033650;28;20172;-59
2021/04/16 13:21:00;;;;;;;5.07;4.67;;;10.00;94.80;;;;;;5033424;28;20168;-58
2021/04/16 13:23:26;;;;;;;6.57;5.30;;;9.80;95.20;;;;;;5033073;28;20510;-58
2021/04/16 13:25:52;;;;;;;5.40;5.00;;;9.30;95.70;;;;;;5033404;28;20939;-55
2021/04/16 13:28:17;;;;;;;5.27;4.87;;;9.30;96.40;;;;;;5033747;28;20892;-61
2021/04/16 13:30:43;;;;;;;5.17;4.67;;;9.40;95.80;;;;;;5033249;28;20181;-56
2021/04/16 13:33:15;;;;;;;4.97;4.57;;;9.30;95.60;;;;;;5033308;28;20737;-58
2021/04/16 13:35:55;;;;;;;5.03;4.60;;;9.30;96.00;;;;;;5033491;28;20262;-55
2021/04/16 13:38:27;;;;;;;5.27;4.87;;;9.60;95.30;;;;;;5033086;28;20861;-56
2021/04/16 13:40:55;;;;;;;4.73;4.33;;;9.30;95.30;;;;;;5033543;28;20482;-56
2021/04/16 13:43:21;;;;;;;5.23;4.73;;;9.10;95.70;;;;;;5033451;28;20519;-59
2021/04/16 13:45:49;;;;;;;6.50;5.30;;;9.30;95.30;;;;;;5033090;28;20408;-59
2021/04/16 13:48:16;;;;;;;4.90;4.50;;;9.60;95.00;;;;;;5015628;28;20431;-58
2021/04/16 13:50:42;;;;;;;4.77;4.47;;;9.40;94.60;;;;;;5020976;28;20427;-57
2021/04/16 13:53:08;;;;;;;4.77;4.43;;;9.30;94.70;;;;;;5033124;28;20433;-58
2021/04/16 13:55:34;;;;;;;4.27;3.87;;;9.50;94.40;;;;;;5033533;28;20416;-59
2021/04/16 13:57:59;;;;;;;4.07;3.77;;;9.40;93.90;;;;;;5033729;28;20215;-57
2021/04/16 14:00:28;;;;;;;4.67;4.27;;;9.10;94.60;;;;;;5034638;28;20211;-59
2021/04/16 14:03:10;;;;;;;4.13;3.83;;;8.90;94.70;;;;;;5051007;28;20255;-58
2021/04/16 14:05:36;;;;;;;3.80;3.40;;;9.10;94.50;;;;;;5054714;28;20408;-59
2021/04/16 14:08:03;;;;;;;5.93;5.13;;;9.20;94.30;;;;;;5054127;28;20625;-59
2021/04/16 14:10:30;;;;;;;4.30;3.90;;;9.20;94.10;;;;;;5036178;28;20178;-58
2021/04/16 14:12:55;;;;;;;4.33;3.97;;;9.20;94.00;;;;;;5033242;28;20438;-59
2021/04/16 14:15:22;;;;;;;3.47;3.27;;;9.20;94.40;;;;;;5033268;28;20787;-58
2021/04/16 14:17:57;;;;;;;4.40;4.00;;;9.30;94.90;;;;;;5033056;28;20176;-56
2021/04/16 14:20:36;;;;;;;3.40;3.20;;;9.40;94.30;;;;;;5037052;28;20913;-60
2021/04/16 14:23:04;;;;;;;3.30;3.00;;;9.40;94.30;;;;;;5035973;28;20458;-60
2021/04/16 14:25:33;;;;;;;4.17;3.80;;;9.00;94.00;;;;;;5036434;28;20411;-58
2021/04/16 14:27:59;;;;;;;4.03;3.47;;;8.80;94.10;;;;;;5036334;28;20398;-61
2021/04/16 14:30:30;;;;;;;3.73;3.30;;;8.80;94.40;;;;;;5018530;28;20484;-63
2021/04/16 14:32:58;;;;;;;4.30;3.30;;;8.50;94.30;;;;;;5036399;28;20468;-63
2021/04/16 14:35:26;;;;;;;3.90;3.40;;;8.40;94.30;;;;;;5036096;28;20417;-62
2021/04/16 14:37:52;;;;;;;3.73;3.43;;;8.50;94.40;;;;;;5036077;28;20502;-59
2021/04/16 14:40:18;;;;;;;5.70;4.60;;;8.60;94.30;;;;;;5036440;28;20827;-58
2021/04/16 14:42:45;;;;;;;4.30;4.00;;;8.90;94.00;;;;;;5036353;28;20458;-59
2021/04/16 14:45:15;;;;;;;5.27;3.63;;;8.90;93.90;;;;;;5036250;28;20406;-56
2021/04/16 14:47:41;;;;;;;4.13;3.83;;;9.10;93.50;;;;;;5036170;28;20394;-58
2021/04/16 14:50:09;;;;;;;8.67;4.90;;;9.40;93.20;;;;;;5036155;28;20737;-57
2021/04/16 14:52:36;;;;;;;7.73;6.90;;;9.40;93.00;;;;;;5035738;28;20218;-58
2021/04/16 14:55:06;;;;;;;4.17;3.83;;;9.30;94.00;;;;;;5036081;28;20897;-59
2021/04/16 14:57:37;;;;;;;4.63;4.23;;;9.30;93.10;;;;;;5035810;28;20423;-59
2021/04/16 15:00:09;;;;;;;3.60;3.30;;;9.40;93.10;;;;;;5036035;28;20422;-56
2021/04/16 15:02:35;;;;;;;3.80;3.50;;;9.60;93.10;;;;;;5035554;28;20481;-59
2021/04/16 15:05:01;;;;;;;5.63;3.80;;;9.60;93.90;;;;;;5035642;28;20921;-62
2021/04/16 15:07:32;;;;;;;3.90;3.70;;;9.90;93.70;;;;;;5035603;28;20173;-59
2021/04/16 15:10:02;;;;;;;3.20;3.00;;;10.10;92.60;;;;;;5035674;28;20646;-58
2021/04/16 15:12:28;;;;;;;3.07;2.87;;;9.60;92.70;;;;;;5035658;28;20457;-63
2021/04/16 15:14:58;;;;;;;6.80;4.03;;;9.40;93.20;;;;;;5034882;28;20922;-62
2021/04/16 15:17:23;;;;;;;3.80;3.47;;;9.20;93.20;;;;;;5035184;28;20424;-60
2021/04/16 15:19:52;;;;;;;4.83;3.47;;;9.00;93.50;;;;;;5035691;28;20830;-58
2021/04/16 15:22:27;;;;;;;3.97;3.67;;;9.10;93.90;;;;;;5035607;28;20663;-58